GMMX Informações do Aeroporto

Informações da Pista
Pista 10 Comprimento 10170 ft Largura 148 ft
Elevação 1506 ft Limite 918 ft Heading 96
Pista 28 Comprimento 10170 ft Largura 148 ft
Elevação 1545 ft Limite 0 ft Heading 276
Frequências do Aeroporto
Tipo APP Nome MARRAKECH Frequência 119.7 MHZ
Tipo TWR Nome MARRAKECH Frequência 118.7 MHZ
Navaids do Aeroporto
Tipo NDB Nome Marrakech Frequência 267 KHZ
Tipo VOR-DME Nome Marrakech Frequência 113300 KHZ
Informações meteorológicas do aeroporto e NOTAM
ADDS - METARS form results

(2349 UTC 30 May 2020)
Data provider http://aviationweather.gov/metar/data/
 
METAR text: GMMX 302330Z 27006KT CAVOK 19/14 Q1012 NOSIG
Conditions at: GMMX (MARRAKECH/MENARA, MA) observed 2330 UTC 30 May 2020
Temperature: 19.0°C (66°F)
Dewpoint: 14.0°C (57°F) [RH = 73%]
Pressure (altimeter): 29.88 inches Hg (1012.0 mb)
Winds: from the W (270 degrees) at 7 MPH (6 knots; 3.1 m/s)
Visibility: 6 or more miles (10+ km)
Ceiling: ceiling and visibility are OK
Clouds: unknown
Weather: no significant weather observed at this time

METAR text: GMMX 302300Z 26007KT CAVOK 19/14 Q1012 NOSIG
Conditions at: GMMX (MARRAKECH/MENARA, MA) observed 2300 UTC 30 May 2020
Temperature: 19.0°C (66°F)
Dewpoint: 14.0°C (57°F) [RH = 73%]
Pressure (altimeter): 29.88 inches Hg (1012.0 mb)
Winds: from the W (260 degrees) at 8 MPH (7 knots; 3.6 m/s)
Visibility: 6 or more miles (10+ km)
Ceiling: ceiling and visibility are OK
Clouds: unknown
Weather: no significant weather observed at this time

Forecast for: GMMX (MARRAKECH/MENARA, MA)
Text: TAF GMMX 302300Z 3100/0106 26006KT 8000 NSC
Forecast period: 0000 UTC 31 May 2020 to 0600 UTC 01 June 2020
Forecast type: FROM: standard forecast or significant change
Winds: from the W (260 degrees) at 7 MPH (6 knots; 3.1 m/s)
Visibility: 5 miles (8 km)
Ceiling: unknown
Clouds: missing
Weather: no significant weather forecast for this period
Text: PROB30
Forecast period: 0300 to 0800 UTC 31 May 2020
Forecast type: TEMPORARY: The following changes expected for less than half the time period
Visibility: 1.86 miles (2.99 km)
Ceiling: 600 feet AGL
Clouds: broken clouds at 600 feet AGL
Weather: BR  (mist)
Text: TEMPO 3103/3108 3000 BR BKN006
Forecast period: 1500 to 2100 UTC 31 May 2020
Forecast type: TEMPORARY: The following changes expected for less than half the time period
Winds: from the NW (320 degrees) at 18 MPH (16 knots; 8.2 m/s)
Visibility: missing
Ceiling: unknown
Clouds: missing
Weather: no significant weather forecast for this period